Mint Spring, Virginia
Current Conditions -  °F | °C
As of 1:35 AM on Saturday 25 Oct 2014 (Local Time) from KW13 Reporting Station
Clear Clear  
Wind Chill: 37°   Ceiling: Unl
Heat Index: 37°   Visibility: 10mi
Dew Point: 36°   Wind: 3mph
Humidity: 94%   Direction: 210°SSW
Pressure: 30"   Gusts: NA
Location:  38.07°N, 79.1°W
Report Text: KW13 250535Z AUTO 21003KT 10SM CLR 03/02 A3000 RMK AO1 T00290020
Loading
Personal Weather Stations






























Interactive Weather Map
Tropical Storm Tracking
New forecast layout! Learn more

10-Day Weather Forecast

Advertisements
Track Severe Weather on mobile